Time;durP1;ratioP1;P1;durP2;ratioP2;P2;SDS_P1;SDS_P2;PMS_P1;PMS_P2;Temp;Humidity;BMP_temperature;BMP_pressure;BME280_temperature;BME280_humidity;BME280_pressure;Samples;Min_cycle;Max_cycle;Signal;HPM_P1;HPM_P2
2023/04/13 00:00:34;;;;;;;15.73;5.15;;;;;;;;;;5053652;28;20502;-71
2023/04/13 00:03:00;;;;;;;18.13;4.30;;;;;;;;;;5065717;28;20025;-71
2023/04/13 00:05:28;;;;;;;13.02;4.68;;;;;;;;;;5056203;28;20086;-71
2023/04/13 00:07:54;;;;;;;20.75;5.10;;;;;;;;;;5053293;28;20029;-71
2023/04/13 00:10:21;;;;;;;12.30;4.18;;;;;;;;;;5053005;28;20100;-71
2023/04/13 00:12:47;;;;;;;10.80;4.55;;;;;;;;;;5053142;28;20066;-74
2023/04/13 00:15:14;;;;;;;14.88;4.70;;;;;;;;;;5053081;28;20021;-71
2023/04/13 00:17:44;;;;;;;12.98;4.65;;;;;;;;;;5053224;28;20025;-71
2023/04/13 00:20:13;;;;;;;12.65;4.68;;;;;;;;;;5053094;28;20025;-70
2023/04/13 00:22:43;;;;;;;20.98;5.10;;;;;;;;;;5052625;28;20032;-71
2023/04/13 00:25:10;;;;;;;16.48;5.60;;;;;;;;;;5052972;28;20047;-72
2023/04/13 00:27:38;;;;;;;14.90;5.50;;;;;;;;;;5052737;28;20024;-71
2023/04/13 00:30:06;;;;;;;15.15;4.68;;;;;;;;;;5052715;28;20159;-72
2023/04/13 00:32:32;;;;;;;19.17;5.47;;;;;;;;;;5052360;28;20021;-71
2023/04/13 00:34:58;;;;;;;15.57;5.30;;;;;;;;;;5052685;28;20028;-71
2023/04/13 00:37:24;;;;;;;14.77;5.32;;;;;;;;;;5052598;28;20100;-72
2023/04/13 00:39:50;;;;;;;19.52;5.80;;;;;;;;;;5052578;28;20093;-72
2023/04/13 00:42:18;;;;;;;18.98;6.50;;;;;;;;;;5052257;28;20024;-72
2023/04/13 00:44:44;;;;;;;14.73;6.18;;;;;;;;;;5052508;28;20441;-71
2023/04/13 00:47:11;;;;;;;22.25;6.45;;;;;;;;;;5052373;28;20021;-71
2023/04/13 00:49:37;;;;;;;15.23;6.13;;;;;;;;;;5052388;28;20510;-71
2023/04/13 00:52:03;;;;;;;17.05;6.00;;;;;;;;;;5052290;28;20027;-72
2023/04/13 00:54:30;;;;;;;24.00;8.32;;;;;;;;;;5052334;28;20028;-71
2023/04/13 00:56:57;;;;;;;18.45;6.95;;;;;;;;;;5052298;28;20028;-70
2023/04/13 00:59:24;;;;;;;26.42;7.28;;;;;;;;;;5052189;28;20017;-71
2023/04/13 01:01:55;;;;;;;22.20;7.15;;;;;;;;;;5051924;28;20020;-71
2023/04/13 01:04:22;;;;;;;24.98;7.22;;;;;;;;;;5052086;28;20096;-72
2023/04/13 01:06:52;;;;;;;21.95;8.85;;;;;;;;;;5052156;28;20017;-70
2023/04/13 01:09:20;;;;;;;23.48;7.85;;;;;;;;;;5051976;28;20017;-70
2023/04/13 01:11:55;;;;;;;27.67;8.50;;;;;;;;;;5052440;28;20037;-71
2023/04/13 01:14:22;;;;;;;24.02;9.10;;;;;;;;;;5060081;28;20351;-71
2023/04/13 01:16:51;;;;;;;19.08;8.23;;;;;;;;;;5052195;28;20524;-71
2023/04/13 01:19:40;;;;;;;22.67;7.95;;;;;;;;;;5051811;28;20419;-73
2023/04/13 01:22:07;;;;;;;28.08;8.55;;;;;;;;;;5051307;28;20061;-72
2023/04/13 01:24:42;;;;;;;22.90;8.27;;;;;;;;;;5052117;28;20036;-70
2023/04/13 01:27:20;;;;;;;19.83;8.27;;;;;;;;;;5051700;28;20021;-72
2023/04/13 01:29:47;;;;;;;23.75;8.90;;;;;;;;;;5051713;28;20394;-72
2023/04/13 01:32:14;;;;;;;22.15;9.73;;;;;;;;;;5051503;28;20094;-70
2023/04/13 01:34:40;;;;;;;25.65;10.27;;;;;;;;;;5051198;28;20106;-73
2023/04/13 01:37:07;;;;;;;25.55;9.57;;;;;;;;;;5051340;28;20489;-71
2023/04/13 01:39:33;;;;;;;24.75;9.63;;;;;;;;;;5051531;28;20624;-71
2023/04/13 01:42:00;;;;;;;30.92;10.15;;;;;;;;;;5051624;28;20079;-72
2023/04/13 01:44:28;;;;;;;25.13;9.65;;;;;;;;;;5051719;28;20612;-71
2023/04/13 01:46:59;;;;;;;21.95;9.05;;;;;;;;;;5051669;28;20039;-71
2023/04/13 01:49:26;;;;;;;25.05;9.10;;;;;;;;;;5051473;28;20037;-70
2023/04/13 01:51:53;;;;;;;29.60;9.93;;;;;;;;;;5051162;28;20467;-70
2023/04/13 01:54:20;;;;;;;19.13;8.52;;;;;;;;;;5051503;28;20017;-72
2023/04/13 01:56:47;;;;;;;26.20;9.65;;;;;;;;;;5049945;28;20033;-73
2023/04/13 01:59:15;;;;;;;21.85;9.73;;;;;;;;;;5054353;28;20078;-75
2023/04/13 02:01:41;;;;;;;23.92;8.98;;;;;;;;;;5071854;28;20025;-73
2023/04/13 02:04:08;;;;;;;24.38;9.35;;;;;;;;;;5054418;28;20032;-73
2023/04/13 02:06:35;;;;;;;20.13;8.63;;;;;;;;;;5073231;28;20367;-73
2023/04/13 02:09:03;;;;;;;26.65;9.48;;;;;;;;;;5074141;28;20021;-73
2023/04/13 02:11:30;;;;;;;27.00;9.40;;;;;;;;;;5074125;28;20025;-74
2023/04/13 02:13:56;;;;;;;20.95;9.23;;;;;;;;;;5058871;28;20020;-73
2023/04/13 02:16:22;;;;;;;23.00;9.88;;;;;;;;;;5058722;28;20056;-74
2023/04/13 02:18:48;;;;;;;20.80;9.25;;;;;;;;;;5080757;28;20040;-73
2023/04/13 02:21:15;;;;;;;20.23;8.85;;;;;;;;;;5075003;28;20497;-71
2023/04/13 02:23:41;;;;;;;22.15;9.05;;;;;;;;;;5070914;28;20374;-73
2023/04/13 02:26:11;;;;;;;23.38;9.27;;;;;;;;;;5070877;28;20043;-73
2023/04/13 02:28:39;;;;;;;20.98;9.77;;;;;;;;;;5071066;28;20024;-73
2023/04/13 02:31:05;;;;;;;24.42;9.85;;;;;;;;;;5070819;28;20367;-72
2023/04/13 02:33:32;;;;;;;23.10;10.13;;;;;;;;;;5071036;28;20495;-73
2023/04/13 02:36:02;;;;;;;23.10;10.07;;;;;;;;;;5070776;28;20024;-73
2023/04/13 02:38:28;;;;;;;20.50;10.45;;;;;;;;;;5070963;28;20013;-72
2023/04/13 02:40:55;;;;;;;25.77;11.65;;;;;;;;;;5071198;28;20386;-71
2023/04/13 02:43:21;;;;;;;23.65;11.57;;;;;;;;;;5070758;28;20082;-72
2023/04/13 02:45:48;;;;;;;25.25;12.25;;;;;;;;;;5072546;28;20037;-72
2023/04/13 02:48:15;;;;;;;26.70;13.02;;;;;;;;;;5074936;28;20074;-71
2023/04/13 02:50:41;;;;;;;27.23;12.93;;;;;;;;;;5074205;28;20446;-72
2023/04/13 02:53:07;;;;;;;26.48;12.82;;;;;;;;;;5074321;28;20059;-71
2023/04/13 02:55:33;;;;;;;29.27;13.35;;;;;;;;;;5074327;28;20027;-72
2023/04/13 02:57:59;;;;;;;25.98;13.38;;;;;;;;;;5074210;28;20082;-72
2023/04/13 03:00:25;;;;;;;27.60;13.75;;;;;;;;;;5074439;28;20078;-73
2023/04/13 03:02:51;;;;;;;34.30;15.52;;;;;;;;;;5073844;28;20033;-73
2023/04/13 03:05:18;;;;;;;32.80;15.23;;;;;;;;;;5074152;28;20059;-72
2023/04/13 03:07:44;;;;;;;27.73;14.40;;;;;;;;;;5073349;28;20105;-72
2023/04/13 03:10:10;;;;;;;28.17;13.82;;;;;;;;;;5073511;28;20036;-73
2023/04/13 03:12:37;;;;;;;31.75;14.70;;;;;;;;;;5078905;28;20028;-75
2023/04/13 03:15:06;;;;;;;32.90;14.43;;;;;;;;;;5082408;28;20020;-74
2023/04/13 03:17:32;;;;;;;30.95;14.70;;;;;;;;;;5062085;28;20016;-71
2023/04/13 03:19:58;;;;;;;28.45;14.90;;;;;;;;;;5073068;28;20029;-71
2023/04/13 03:22:29;;;;;;;34.75;15.93;;;;;;;;;;5072817;28;20437;-70
2023/04/13 03:24:55;;;;;;;32.97;15.80;;;;;;;;;;5073179;28;20025;-71
2023/04/13 03:27:21;;;;;;;36.80;16.98;;;;;;;;;;5073629;28;20025;-73
2023/04/13 03:29:48;;;;;;;42.63;17.58;;;;;;;;;;5073584;28;20073;-71
2023/04/13 03:32:14;;;;;;;36.55;18.75;;;;;;;;;;5072900;28;20527;-70
2023/04/13 03:34:42;;;;;;;40.30;19.48;;;;;;;;;;5073160;28;20038;-71
2023/04/13 03:37:09;;;;;;;44.53;19.08;;;;;;;;;;5073083;28;20032;-72
2023/04/13 03:39:35;;;;;;;42.70;19.23;;;;;;;;;;5069410;28;20366;-71
2023/04/13 03:42:02;;;;;;;38.70;18.42;;;;;;;;;;5060982;28;20049;-72
2023/04/13 03:44:28;;;;;;;39.95;18.77;;;;;;;;;;5064212;28;20445;-73
2023/04/13 03:46:54;;;;;;;42.80;19.98;;;;;;;;;;5061776;28;20028;-73
2023/04/13 03:49:20;;;;;;;39.55;17.85;;;;;;;;;;5063958;28;20017;-73
2023/04/13 03:51:46;;;;;;;40.03;18.95;;;;;;;;;;5061043;28;20595;-73
2023/04/13 03:54:12;;;;;;;45.53;18.92;;;;;;;;;;5060605;28;20402;-73
2023/04/13 03:56:38;;;;;;;48.08;18.40;;;;;;;;;;5066013;28;20032;-73
2023/04/13 03:59:04;;;;;;;43.03;19.23;;;;;;;;;;5061127;28;20123;-73
2023/04/13 04:01:30;;;;;;;38.65;18.20;;;;;;;;;;5063003;28;20501;-72
2023/04/13 04:03:56;;;;;;;38.78;19.27;;;;;;;;;;5060048;28;20056;-73
2023/04/13 04:06:23;;;;;;;43.63;18.60;;;;;;;;;;5062795;28;20029;-73
2023/04/13 04:08:50;;;;;;;35.92;18.83;;;;;;;;;;5059528;28;20032;-73
2023/04/13 04:11:16;;;;;;;41.72;19.65;;;;;;;;;;5062914;28;20120;-72
2023/04/13 04:13:42;;;;;;;41.50;19.23;;;;;;;;;;5060348;28;20037;-69
2023/04/13 04:16:10;;;;;;;45.17;19.55;;;;;;;;;;5052602;28;20028;-70
2023/04/13 04:18:36;;;;;;;39.35;19.73;;;;;;;;;;5052747;28;20021;-69
2023/04/13 04:21:02;;;;;;;34.35;18.92;;;;;;;;;;5054943;28;20084;-70
2023/04/13 04:23:28;;;;;;;39.95;19.55;;;;;;;;;;5053491;28;20025;-70
2023/04/13 04:25:58;;;;;;;42.10;17.90;;;;;;;;;;5052024;28;20028;-71
2023/04/13 04:28:24;;;;;;;45.20;19.02;;;;;;;;;;5051471;28;20245;-71
2023/04/13 04:30:52;;;;;;;40.40;19.35;;;;;;;;;;5051858;28;20387;-73
2023/04/13 04:33:21;;;;;;;46.58;20.08;;;;;;;;;;5057913;28;20121;-74
2023/04/13 04:35:50;;;;;;;46.22;19.85;;;;;;;;;;5062553;28;20025;-73
2023/04/13 04:38:16;;;;;;;41.28;19.38;;;;;;;;;;5065817;28;20058;-73
2023/04/13 04:40:45;;;;;;;42.47;20.00;;;;;;;;;;5055620;28;20494;-72
2023/04/13 04:43:13;;;;;;;40.67;20.38;;;;;;;;;;5062936;28;20033;-72
2023/04/13 04:45:42;;;;;;;41.80;19.63;;;;;;;;;;5060947;28;20037;-72
2023/04/13 04:48:08;;;;;;;37.97;19.75;;;;;;;;;;5062613;28;20028;-73
2023/04/13 04:50:36;;;;;;;40.85;20.98;;;;;;;;;;5057971;28;20025;-73
2023/04/13 04:53:02;;;;;;;49.92;21.55;;;;;;;;;;5065426;28;20020;-74
2023/04/13 04:55:28;;;;;;;45.53;20.70;;;;;;;;;;5065388;28;20098;-70
2023/04/13 04:57:54;;;;;;;42.92;20.55;;;;;;;;;;5051888;28;20482;-70
2023/04/13 05:00:20;;;;;;;45.45;20.45;;;;;;;;;;5051089;28;20033;-70
2023/04/13 05:02:49;;;;;;;38.40;19.60;;;;;;;;;;5050983;28;20077;-71
2023/04/13 05:05:15;;;;;;;48.83;20.23;;;;;;;;;;5051229;28;20127;-73
2023/04/13 05:07:41;;;;;;;40.97;20.48;;;;;;;;;;5050644;28;20090;-72
2023/04/13 05:10:08;;;;;;;47.10;19.70;;;;;;;;;;5050823;28;20033;-74
2023/04/13 05:12:34;;;;;;;46.97;21.00;;;;;;;;;;5050708;28;20047;-73
2023/04/13 05:15:00;;;;;;;38.63;19.95;;;;;;;;;;5051223;28;20021;-72
2023/04/13 05:17:27;;;;;;;39.63;19.75;;;;;;;;;;5050834;28;20466;-69
2023/04/13 05:19:53;;;;;;;37.25;19.90;;;;;;;;;;5051017;28;20386;-71
2023/04/13 05:22:20;;;;;;;43.35;18.85;;;;;;;;;;5050568;28;20035;-71
2023/04/13 05:24:46;;;;;;;38.30;17.80;;;;;;;;;;5050681;28;20107;-72
2023/04/13 05:27:14;;;;;;;38.17;18.50;;;;;;;;;;5050719;28;20029;-73
2023/04/13 05:29:40;;;;;;;34.80;17.48;;;;;;;;;;5050485;28;20021;-71
2023/04/13 05:32:06;;;;;;;40.00;18.25;;;;;;;;;;5050275;28;20086;-72
2023/04/13 05:34:34;;;;;;;35.65;17.10;;;;;;;;;;5050513;28;20021;-72
2023/04/13 05:37:00;;;;;;;33.40;16.10;;;;;;;;;;5050654;28;20021;-71
2023/04/13 05:39:27;;;;;;;33.08;16.85;;;;;;;;;;5050436;28;20021;-72
2023/04/13 05:41:53;;;;;;;32.08;15.85;;;;;;;;;;5050357;28;20078;-71
2023/04/13 05:44:19;;;;;;;31.38;14.88;;;;;;;;;;5050564;28;20501;-72
2023/04/13 05:46:45;;;;;;;33.15;16.10;;;;;;;;;;5050409;28;20114;-73
2023/04/13 05:49:11;;;;;;;27.00;14.40;;;;;;;;;;5050468;28;20021;-73
2023/04/13 05:51:38;;;;;;;29.15;14.63;;;;;;;;;;5050272;28;20171;-72
2023/04/13 05:54:04;;;;;;;31.15;16.45;;;;;;;;;;5049945;28;20410;-73
2023/04/13 05:56:30;;;;;;;28.27;14.23;;;;;;;;;;5050014;28;20029;-72
2023/04/13 05:58:57;;;;;;;25.67;13.52;;;;;;;;;;5050312;28;20021;-75
2023/04/13 06:01:23;;;;;;;29.55;12.73;;;;;;;;;;5050161;28;20056;-72
2023/04/13 06:03:51;;;;;;;23.85;10.65;;;;;;;;;;5050355;28;20059;-72
2023/04/13 06:06:17;;;;;;;25.50;10.05;;;;;;;;;;5060424;28;20116;-73
2023/04/13 06:08:43;;;;;;;27.77;10.02;;;;;;;;;;5061646;28;20063;-72
2023/04/13 06:11:10;;;;;;;17.45;8.18;;;;;;;;;;5064410;28;20090;-73
2023/04/13 06:13:36;;;;;;;22.02;9.02;;;;;;;;;;5060005;28;20024;-71
2023/04/13 06:16:02;;;;;;;21.52;8.80;;;;;;;;;;5058472;28;20024;-70
2023/04/13 06:18:28;;;;;;;19.63;8.77;;;;;;;;;;5050207;28;20021;-71
2023/04/13 06:20:55;;;;;;;18.10;7.57;;;;;;;;;;5052525;28;20028;-70
2023/04/13 06:23:21;;;;;;;22.23;9.18;;;;;;;;;;5053890;28;20036;-71
2023/04/13 06:25:48;;;;;;;20.05;9.10;;;;;;;;;;5054645;28;20289;-73
2023/04/13 06:28:14;;;;;;;18.77;8.20;;;;;;;;;;5053743;28;20051;-72
2023/04/13 06:30:40;;;;;;;16.48;7.82;;;;;;;;;;5053879;28;20025;-70
2023/04/13 06:33:06;;;;;;;22.58;9.00;;;;;;;;;;5053897;28;20032;-71
2023/04/13 06:35:32;;;;;;;19.65;7.45;;;;;;;;;;5053812;28;20099;-70
2023/04/13 06:38:00;;;;;;;17.98;7.50;;;;;;;;;;5053868;28;20057;-72
2023/04/13 06:40:27;;;;;;;14.85;7.20;;;;;;;;;;5054298;28;20036;-73
2023/04/13 06:42:53;;;;;;;14.98;6.47;;;;;;;;;;5053472;28;20488;-72
2023/04/13 06:45:20;;;;;;;14.25;5.25;;;;;;;;;;5054561;28;20466;-74
2023/04/13 06:47:46;;;;;;;12.27;6.60;;;;;;;;;;5053917;28;20032;-74
2023/04/13 06:50:14;;;;;;;15.82;7.07;;;;;;;;;;5054075;28;20033;-72
2023/04/13 06:52:44;;;;;;;14.60;6.47;;;;;;;;;;5054537;28;20028;-74
2023/04/13 06:55:10;;;;;;;16.70;6.70;;;;;;;;;;5054357;28;20028;-69
2023/04/13 06:57:36;;;;;;;16.65;6.70;;;;;;;;;;5053506;28;20560;-70
2023/04/13 07:00:05;;;;;;;19.02;6.22;;;;;;;;;;5054897;28;20025;-73
2023/04/13 07:02:31;;;;;;;15.45;7.00;;;;;;;;;;5054664;28;20056;-72
2023/04/13 07:04:58;;;;;;;24.80;7.57;;;;;;;;;;5054851;28;20025;-74
2023/04/13 07:07:24;;;;;;;14.95;7.30;;;;;;;;;;5056695;28;20025;-74
2023/04/13 07:09:50;;;;;;;22.42;8.60;;;;;;;;;;5054616;28;20089;-79
2023/04/13 07:12:16;;;;;;;13.77;6.68;;;;;;;;;;5052998;28;20560;-72
2023/04/13 07:14:42;;;;;;;12.95;6.22;;;;;;;;;;5055031;28;20375;-73
2023/04/13 07:17:08;;;;;;;15.32;6.22;;;;;;;;;;5044302;28;20368;-73
2023/04/13 07:19:35;;;;;;;14.57;5.47;;;;;;;;;;5069585;28;20065;-77
2023/04/13 07:22:01;;;;;;;11.55;5.90;;;;;;;;;;5064926;28;20021;-74
2023/04/13 07:24:27;;;;;;;9.48;4.78;;;;;;;;;;5042179;28;20029;-74
2023/04/13 07:26:56;;;;;;;13.07;4.97;;;;;;;;;;5056103;28;20033;-75
2023/04/13 07:29:22;;;;;;;15.75;5.55;;;;;;;;;;5053634;28;20017;-76
2023/04/13 07:31:49;;;;;;;9.38;4.63;;;;;;;;;;5051888;28;20043;-77
2023/04/13 07:34:15;;;;;;;7.47;3.65;;;;;;;;;;5053265;28;20051;-74
2023/04/13 07:36:41;;;;;;;12.32;3.92;;;;;;;;;;5053807;28;20021;-72
2023/04/13 07:39:10;;;;;;;11.55;3.58;;;;;;;;;;5052858;28;20176;-72
2023/04/13 07:41:37;;;;;;;7.70;3.20;;;;;;;;;;5052579;28;20032;-72
2023/04/13 07:44:04;;;;;;;9.15;3.40;;;;;;;;;;5048927;28;20106;-72
2023/04/13 07:46:30;;;;;;;11.30;4.10;;;;;;;;;;5052617;28;20056;-71
2023/04/13 07:48:56;;;;;;;6.22;3.00;;;;;;;;;;5052213;28;20108;-72
2023/04/13 07:51:22;;;;;;;12.10;2.80;;;;;;;;;;5052196;28;20462;-72
2023/04/13 07:53:48;;;;;;;5.97;2.42;;;;;;;;;;5052224;28;20112;-71
2023/04/13 07:56:14;;;;;;;9.93;3.05;;;;;;;;;;5052748;28;20017;-71
2023/04/13 07:58:40;;;;;;;8.20;2.92;;;;;;;;;;5053366;28;20025;-72
2023/04/13 08:01:07;;;;;;;8.02;2.38;;;;;;;;;;5053128;28;20029;-71
2023/04/13 08:03:34;;;;;;;6.90;2.28;;;;;;;;;;5052838;28;20568;-71
2023/04/13 08:06:01;;;;;;;5.65;2.20;;;;;;;;;;5053214;28;20025;-72
2023/04/13 08:08:28;;;;;;;7.18;2.25;;;;;;;;;;5063465;28;20078;-71
2023/04/13 08:10:54;;;;;;;4.88;2.13;;;;;;;;;;5072941;28;20052;-71
2023/04/13 08:13:20;;;;;;;8.32;2.42;;;;;;;;;;5072731;28;20434;-72
2023/04/13 08:15:46;;;;;;;5.68;2.30;;;;;;;;;;5073545;28;20067;-73
2023/04/13 08:18:12;;;;;;;7.30;2.03;;;;;;;;;;5073486;28;20028;-73
2023/04/13 08:20:38;;;;;;;10.00;2.50;;;;;;;;;;5073722;28;20028;-72
2023/04/13 08:23:05;;;;;;;7.50;2.13;;;;;;;;;;5073372;28;20020;-73
2023/04/13 08:25:31;;;;;;;7.03;2.38;;;;;;;;;;5073691;28;20024;-73
2023/04/13 08:27:57;;;;;;;5.78;2.30;;;;;;;;;;5073080;28;20047;-73
2023/04/13 08:30:23;;;;;;;6.65;2.20;;;;;;;;;;5077515;28;20035;-73
2023/04/13 08:32:49;;;;;;;4.13;2.03;;;;;;;;;;5060210;28;20031;-72
2023/04/13 08:35:15;;;;;;;8.68;2.30;;;;;;;;;;5066305;28;20104;-71
2023/04/13 08:37:41;;;;;;;5.13;2.15;;;;;;;;;;5053917;28;20095;-74
2023/04/13 08:40:10;;;;;;;9.75;2.22;;;;;;;;;;5056202;28;20096;-75
2023/04/13 08:42:40;;;;;;;6.72;1.83;;;;;;;;;;5037676;28;20036;-73
2023/04/13 08:45:07;;;;;;;5.63;1.98;;;;;;;;;;5058162;28;20021;-73
2023/04/13 08:47:33;;;;;;;8.55;1.90;;;;;;;;;;5061399;28;20043;-75
2023/04/13 08:50:00;;;;;;;4.55;2.03;;;;;;;;;;5039811;28;20028;-76
2023/04/13 08:52:27;;;;;;;6.30;1.90;;;;;;;;;;5053500;28;20421;-78
2023/04/13 08:54:54;;;;;;;8.68;2.30;;;;;;;;;;5053841;28;20471;-77
2023/04/13 08:57:20;;;;;;;9.50;1.75;;;;;;;;;;5053144;28;20025;-77
2023/04/13 08:59:47;;;;;;;8.23;2.00;;;;;;;;;;5054623;28;20056;-77
2023/04/13 09:02:13;;;;;;;4.22;1.48;;;;;;;;;;5052928;28;20029;-75
2023/04/13 09:04:42;;;;;;;3.90;1.67;;;;;;;;;;5057077;28;20466;-74
2023/04/13 09:07:11;;;;;;;6.60;2.00;;;;;;;;;;5040019;28;20519;-74
2023/04/13 09:09:38;;;;;;;5.95;1.90;;;;;;;;;;5059340;28;20036;-75
2023/04/13 09:12:04;;;;;;;7.60;2.75;;;;;;;;;;5055643;28;20029;-72
2023/04/13 09:14:31;;;;;;;5.25;1.88;;;;;;;;;;5054827;28;20143;-72
2023/04/13 09:16:58;;;;;;;7.75;1.80;;;;;;;;;;5055863;28;20021;-73
2023/04/13 09:19:31;;;;;;;3.40;1.80;;;;;;;;;;5046516;28;20075;-73
2023/04/13 09:21:59;;;;;;;5.25;1.83;;;;;;;;;;5040510;28;20048;-73
2023/04/13 09:24:26;;;;;;;4.50;1.58;;;;;;;;;;5037755;28;20025;-73
2023/04/13 09:26:52;;;;;;;4.65;1.60;;;;;;;;;;5055009;28;20364;-74
2023/04/13 09:29:19;;;;;;;5.28;1.60;;;;;;;;;;5055296;28;20087;-75
2023/04/13 09:31:46;;;;;;;4.95;1.65;;;;;;;;;;5055646;28;20104;-74
2023/04/13 09:34:12;;;;;;;4.97;1.50;;;;;;;;;;5055884;28;20047;-73
2023/04/13 09:36:39;;;;;;;7.72;1.88;;;;;;;;;;5055689;28;20021;-73
2023/04/13 09:39:05;;;;;;;5.28;1.65;;;;;;;;;;5052582;28;20359;-71
2023/04/13 09:41:36;;;;;;;14.15;5.35;;;;;;;;;;5051990;28;20036;-71
2023/04/13 09:44:02;;;;;;;8.25;1.65;;;;;;;;;;5052329;28;20029;-74
2023/04/13 09:46:28;;;;;;;5.15;1.70;;;;;;;;;;5053272;28;20029;-74
2023/04/13 09:49:03;;;;;;;6.40;1.60;;;;;;;;;;5051283;28;20083;-76
2023/04/13 09:51:37;;;;;;;5.20;1.60;;;;;;;;;;5052264;28;20032;-73
2023/04/13 09:54:04;;;;;;;6.22;1.80;;;;;;;;;;5051586;28;20028;-71
2023/04/13 09:56:31;;;;;;;12.32;4.05;;;;;;;;;;5054776;28;20017;-72
2023/04/13 09:58:57;;;;;;;7.38;2.97;;;;;;;;;;5057096;28;20013;-72
2023/04/13 10:01:24;;;;;;;5.32;1.52;;;;;;;;;;5057292;28;20040;-71
2023/04/13 10:03:50;;;;;;;4.00;1.60;;;;;;;;;;5055588;28;20483;-73
2023/04/13 10:06:16;;;;;;;3.95;1.67;;;;;;;;;;5055427;28;20483;-73
2023/04/13 10:08:42;;;;;;;3.92;1.60;;;;;;;;;;5055015;28;20056;-73
2023/04/13 10:11:13;;;;;;;7.82;1.88;;;;;;;;;;5054955;28;20037;-73
2023/04/13 10:13:56;;;;;;;7.90;2.00;;;;;;;;;;5055146;28;20028;-73
2023/04/13 10:16:25;;;;;;;6.78;1.92;;;;;;;;;;5055270;28;20496;-72
2023/04/13 10:18:56;;;;;;;4.97;1.75;;;;;;;;;;5055148;28;20119;-73
2023/04/13 10:21:22;;;;;;;5.15;1.67;;;;;;;;;;5055083;28;20032;-73
2023/04/13 10:23:49;;;;;;;8.35;2.03;;;;;;;;;;5054569;28;20029;-73
2023/04/13 10:26:15;;;;;;;8.90;1.90;;;;;;;;;;5055019;28;20051;-73
2023/04/13 10:28:41;;;;;;;4.18;1.60;;;;;;;;;;5054854;28;20028;-72
2023/04/13 10:31:07;;;;;;;10.35;2.00;;;;;;;;;;5054903;28;20040;-73
2023/04/13 10:33:33;;;;;;;5.70;1.63;;;;;;;;;;5054935;28;20100;-72
2023/04/13 10:36:01;;;;;;;4.57;1.40;;;;;;;;;;5054936;28;20032;-73
2023/04/13 10:38:27;;;;;;;5.78;1.85;;;;;;;;;;5054698;28;20394;-72
2023/04/13 10:40:53;;;;;;;7.78;1.80;;;;;;;;;;5054943;28;20116;-72
2023/04/13 10:43:29;;;;;;;8.30;2.00;;;;;;;;;;5055418;28;20108;-73
2023/04/13 10:46:05;;;;;;;4.05;1.85;;;;;;;;;;5056772;28;20024;-73
2023/04/13 10:48:31;;;;;;;3.42;1.40;;;;;;;;;;5055567;28;20025;-74
2023/04/13 10:50:58;;;;;;;10.32;1.90;;;;;;;;;;5058253;28;20089;-72
2023/04/13 10:53:24;;;;;;;7.85;2.22;;;;;;;;;;5054973;28;20379;-73
2023/04/13 10:55:50;;;;;;;5.50;1.90;;;;;;;;;;5036607;28;20028;-71
2023/04/13 10:58:17;;;;;;;3.17;1.60;;;;;;;;;;5054386;28;20445;-72
2023/04/13 11:00:45;;;;;;;6.15;2.40;;;;;;;;;;5054654;28;20040;-72
2023/04/13 11:03:13;;;;;;;6.72;2.33;;;;;;;;;;5054136;28;20047;-71
2023/04/13 11:05:39;;;;;;;5.43;1.60;;;;;;;;;;5054314;28;20021;-72
2023/04/13 11:08:05;;;;;;;11.77;2.70;;;;;;;;;;5054420;28;20056;-72
2023/04/13 11:10:31;;;;;;;9.20;2.72;;;;;;;;;;5054578;28;20088;-73
2023/04/13 11:12:58;;;;;;;4.20;2.58;;;;;;;;;;5054325;28;20029;-71
2023/04/13 11:15:26;;;;;;;5.40;2.55;;;;;;;;;;5054043;28;20058;-72
2023/04/13 11:17:56;;;;;;;8.68;1.75;;;;;;;;;;5054029;28;20033;-73
2023/04/13 11:20:38;;;;;;;6.88;3.58;;;;;;;;;;5054425;28;20029;-74
2023/04/13 11:23:06;;;;;;;11.35;3.17;;;;;;;;;;5054462;28;20116;-73
2023/04/13 11:25:34;;;;;;;7.38;3.03;;;;;;;;;;5054449;28;20064;-73
2023/04/13 11:28:02;;;;;;;8.93;3.80;;;;;;;;;;5052884;28;20036;-72
2023/04/13 11:30:28;;;;;;;9.13;2.20;;;;;;;;;;5052058;28;20056;-73
2023/04/13 11:32:54;;;;;;;10.00;4.15;;;;;;;;;;5052033;28;20021;-72
2023/04/13 11:35:22;;;;;;;4.95;1.60;;;;;;;;;;5052870;28;20017;-72
2023/04/13 11:37:51;;;;;;;7.25;1.80;;;;;;;;;;5052632;28;20028;-70
2023/04/13 11:40:20;;;;;;;7.40;1.95;;;;;;;;;;5053373;28;20052;-71
2023/04/13 11:42:47;;;;;;;6.20;1.65;;;;;;;;;;5052532;28;20032;-71
2023/04/13 11:45:17;;;;;;;4.45;2.13;;;;;;;;;;5053266;28;20025;-73
2023/04/13 11:47:44;;;;;;;26.08;13.35;;;;;;;;;;5053556;28;20367;-73
2023/04/13 11:50:11;;;;;;;7.55;2.97;;;;;;;;;;5055439;28;20021;-75
2023/04/13 11:52:38;;;;;;;7.20;2.45;;;;;;;;;;5054606;28;20071;-73
2023/04/13 11:55:05;;;;;;;8.82;2.90;;;;;;;;;;5054820;28;20025;-73
2023/04/13 11:57:34;;;;;;;10.95;1.60;;;;;;;;;;5053295;28;20127;-72
2023/04/13 12:00:00;;;;;;;3.90;1.73;;;;;;;;;;5053654;28;20382;-72
2023/04/13 12:02:27;;;;;;;6.93;1.80;;;;;;;;;;5052538;28;20061;-72
2023/04/13 12:04:53;;;;;;;6.22;1.60;;;;;;;;;;5053526;28;20178;-72
2023/04/13 12:07:19;;;;;;;5.18;1.67;;;;;;;;;;5035554;28;20447;-74
2023/04/13 12:09:46;;;;;;;3.65;1.60;;;;;;;;;;5053037;28;20024;-76
2023/04/13 12:12:20;;;;;;;11.48;3.70;;;;;;;;;;5053920;28;20421;-73
2023/04/13 12:14:53;;;;;;;7.05;3.58;;;;;;;;;;5052864;28;20083;-73
2023/04/13 12:17:19;;;;;;;5.45;1.58;;;;;;;;;;5052174;28;20029;-71
2023/04/13 12:19:49;;;;;;;7.97;2.90;;;;;;;;;;5051939;28;20086;-71
2023/04/13 12:22:15;;;;;;;4.90;1.75;;;;;;;;;;5053811;28;20017;-72
2023/04/13 12:24:41;;;;;;;7.38;1.95;;;;;;;;;;5053529;28;20096;-72
2023/04/13 12:27:07;;;;;;;11.40;1.70;;;;;;;;;;5052814;28;20137;-73
2023/04/13 12:29:37;;;;;;;4.28;1.70;;;;;;;;;;5053266;28;20032;-73
2023/04/13 12:32:07;;;;;;;4.97;1.60;;;;;;;;;;5054389;28;20025;-72
2023/04/13 12:34:33;;;;;;;2.60;1.30;;;;;;;;;;5034894;28;20029;-73
2023/04/13 12:36:59;;;;;;;6.22;1.88;;;;;;;;;;5052244;28;20035;-74
2023/04/13 12:39:26;;;;;;;4.68;1.77;;;;;;;;;;5051958;28;20116;-73
2023/04/13 12:41:52;;;;;;;5.28;1.60;;;;;;;;;;5051596;28;20017;-72
2023/04/13 12:44:18;;;;;;;3.22;1.70;;;;;;;;;;5053324;28;20429;-73
2023/04/13 12:46:44;;;;;;;4.45;1.00;;;;;;;;;;5054552;28;20068;-74
2023/04/13 12:49:10;;;;;;;4.63;1.33;;;;;;;;;;5055481;28;20021;-79
2023/04/13 12:51:36;;;;;;;4.22;1.30;;;;;;;;;;5057755;28;20044;-75
2023/04/13 12:54:02;;;;;;;4.95;1.70;;;;;;;;;;5056713;28;20033;-74
2023/04/13 12:56:28;;;;;;;4.60;1.92;;;;;;;;;;5056876;28;20040;-74
2023/04/13 12:58:55;;;;;;;5.90;1.25;;;;;;;;;;5063507;28;20027;-74
2023/04/13 13:01:21;;;;;;;5.72;1.27;;;;;;;;;;5064340;28;20055;-74
2023/04/13 13:03:47;;;;;;;3.65;1.45;;;;;;;;;;5059334;28;20037;-74
2023/04/13 13:06:13;;;;;;;5.85;1.33;;;;;;;;;;5058344;28;20535;-74
2023/04/13 13:08:39;;;;;;;5.97;1.65;;;;;;;;;;5060795;28;20029;-73
2023/04/13 13:11:07;;;;;;;3.67;1.52;;;;;;;;;;5061460;28;20022;-74
2023/04/13 13:13:33;;;;;;;4.95;2.10;;;;;;;;;;5055247;28;20045;-74
2023/04/13 13:15:59;;;;;;;4.30;1.60;;;;;;;;;;5063491;28;20035;-73
2023/04/13 13:18:25;;;;;;;6.20;1.50;;;;;;;;;;5059569;28;20108;-74
2023/04/13 13:20:52;;;;;;;5.20;2.67;;;;;;;;;;5066217;28;20021;-72
2023/04/13 13:23:18;;;;;;;3.80;2.13;;;;;;;;;;5070594;28;20028;-73
2023/04/13 13:25:45;;;;;;;3.17;1.58;;;;;;;;;;5063931;28;20020;-73
2023/04/13 13:28:11;;;;;;;5.50;1.52;;;;;;;;;;5064344;28;20021;-71
2023/04/13 13:30:37;;;;;;;2.60;1.30;;;;;;;;;;5062414;28;20363;-72
2023/04/13 13:33:04;;;;;;;4.82;1.45;;;;;;;;;;5061464;28;20126;-73
2023/04/13 13:35:31;;;;;;;4.40;1.70;;;;;;;;;;5059731;28;20082;-72
2023/04/13 13:37:57;;;;;;;3.72;1.50;;;;;;;;;;5066186;28;20287;-72
2023/04/13 13:40:23;;;;;;;3.88;1.45;;;;;;;;;;5071123;28;20210;-74
2023/04/13 13:42:50;;;;;;;8.35;3.03;;;;;;;;;;5064928;28;20055;-73
2023/04/13 13:45:15;;;;;;;6.13;1.98;;;;;;;;;;5070864;28;20119;-72
2023/04/13 13:47:41;;;;;;;4.32;1.58;;;;;;;;;;5070148;28;20028;-74
2023/04/13 13:50:08;;;;;;;4.20;1.80;;;;;;;;;;5067964;28;20071;-74
2023/04/13 13:52:34;;;;;;;3.63;1.60;;;;;;;;;;5066557;28;20092;-75
2023/04/13 13:55:00;;;;;;;2.92;1.60;;;;;;;;;;5076773;28;20036;-74
2023/04/13 13:57:26;;;;;;;2.95;1.48;;;;;;;;;;5059120;28;20029;-71
2023/04/13 13:59:52;;;;;;;4.68;1.60;;;;;;;;;;5063828;28;20104;-72
2023/04/13 14:02:19;;;;;;;1.95;1.00;;;;;;;;;;5058812;28;20212;-74
2023/04/13 14:04:45;;;;;;;3.33;1.10;;;;;;;;;;5050254;28;20021;-73
2023/04/13 14:07:12;;;;;;;6.57;1.30;;;;;;;;;;5050071;28;20028;-72
2023/04/13 14:09:38;;;;;;;4.43;1.70;;;;;;;;;;5050173;28;20512;-74
2023/04/13 14:12:04;;;;;;;3.17;1.23;;;;;;;;;;5054930;28;20036;-73
2023/04/13 14:14:30;;;;;;;3.75;1.60;;;;;;;;;;5049919;28;20433;-72
2023/04/13 14:16:56;;;;;;;5.35;2.33;;;;;;;;;;5050229;28;20027;-73
2023/04/13 14:19:22;;;;;;;2.58;1.38;;;;;;;;;;5050105;28;20029;-70
2023/04/13 14:21:49;;;;;;;4.10;1.40;;;;;;;;;;5051330;28;20107;-72
2023/04/13 14:24:15;;;;;;;3.90;1.40;;;;;;;;;;5052063;28;20025;-71
2023/04/13 14:26:41;;;;;;;3.83;1.40;;;;;;;;;;5050938;28;20029;-72
2023/04/13 14:29:08;;;;;;;7.65;2.90;;;;;;;;;;5050356;28;20031;-71
2023/04/13 14:31:34;;;;;;;7.82;2.90;;;;;;;;;;5049661;28;20368;-75